sensor_id;sensor_type;location;lat;lon;timestamp;P1;durP1;ratioP1;P2;durP2;ratioP2
37905;SDS011;23739;51.448;6.674;2023-06-14T00:01:47;6.25;;;4.00;;
37905;SDS011;23739;51.448;6.674;2023-06-14T00:04:13;5.80;;;4.50;;
37905;SDS011;23739;51.448;6.674;2023-06-14T00:06:44;5.05;;;3.97;;
37905;SDS011;23739;51.448;6.674;2023-06-14T00:09:11;5.90;;;4.10;;
37905;SDS011;23739;51.448;6.674;2023-06-14T00:11:41;6.35;;;4.30;;
37905;SDS011;23739;51.448;6.674;2023-06-14T00:14:07;9.55;;;4.70;;
37905;SDS011;23739;51.448;6.674;2023-06-14T00:16:33;5.15;;;4.63;;
37905;SDS011;23739;51.448;6.674;2023-06-14T00:19:00;7.13;;;4.88;;
37905;SDS011;23739;51.448;6.674;2023-06-14T00:21:29;5.13;;;4.25;;
37905;SDS011;23739;51.448;6.674;2023-06-14T00:23:55;7.03;;;4.88;;
37905;SDS011;23739;51.448;6.674;2023-06-14T00:26:21;4.88;;;3.88;;
37905;SDS011;23739;51.448;6.674;2023-06-14T00:28:48;5.95;;;4.47;;
37905;SDS011;23739;51.448;6.674;2023-06-14T00:31:14;5.20;;;4.35;;
37905;SDS011;23739;51.448;6.674;2023-06-14T00:33:41;6.93;;;4.40;;
37905;SDS011;23739;51.448;6.674;2023-06-14T00:36:07;8.48;;;4.10;;
37905;SDS011;23739;51.448;6.674;2023-06-14T00:38:33;6.65;;;4.20;;
37905;SDS011;23739;51.448;6.674;2023-06-14T00:40:59;5.43;;;4.47;;
37905;SDS011;23739;51.448;6.674;2023-06-14T00:43:25;6.28;;;4.03;;
37905;SDS011;23739;51.448;6.674;2023-06-14T00:45:51;5.40;;;4.22;;
37905;SDS011;23739;51.448;6.674;2023-06-14T00:48:17;6.97;;;4.75;;
37905;SDS011;23739;51.448;6.674;2023-06-14T00:50:44;5.53;;;4.43;;
37905;SDS011;23739;51.448;6.674;2023-06-14T00:53:11;5.32;;;4.65;;
37905;SDS011;23739;51.448;6.674;2023-06-14T00:55:37;6.57;;;4.28;;
37905;SDS011;23739;51.448;6.674;2023-06-14T00:58:04;6.43;;;4.15;;
37905;SDS011;23739;51.448;6.674;2023-06-14T01:00:30;7.57;;;4.50;;
37905;SDS011;23739;51.448;6.674;2023-06-14T01:02:56;10.30;;;4.82;;
37905;SDS011;23739;51.448;6.674;2023-06-14T01:05:22;7.68;;;4.00;;
37905;SDS011;23739;51.448;6.674;2023-06-14T01:10:26;8.82;;;4.57;;
37905;SDS011;23739;51.448;6.674;2023-06-14T01:15:30;12.40;;;4.93;;
37905;SDS011;23739;51.448;6.674;2023-06-14T01:17:57;9.10;;;5.32;;
37905;SDS011;23739;51.448;6.674;2023-06-14T01:20:28;7.53;;;5.63;;
37905;SDS011;23739;51.448;6.674;2023-06-14T01:22:55;6.85;;;4.50;;
37905;SDS011;23739;51.448;6.674;2023-06-14T01:25:22;7.85;;;4.57;;
37905;SDS011;23739;51.448;6.674;2023-06-14T01:27:48;6.78;;;4.18;;
37905;SDS011;23739;51.448;6.674;2023-06-14T01:30:16;5.65;;;4.28;;
37905;SDS011;23739;51.448;6.674;2023-06-14T01:32:43;9.60;;;4.18;;
37905;SDS011;23739;51.448;6.674;2023-06-14T01:35:10;8.68;;;4.43;;
37905;SDS011;23739;51.448;6.674;2023-06-14T01:37:36;7.60;;;4.50;;
37905;SDS011;23739;51.448;6.674;2023-06-14T01:40:05;7.05;;;4.22;;
37905;SDS011;23739;51.448;6.674;2023-06-14T01:42:34;10.00;;;4.55;;
37905;SDS011;23739;51.448;6.674;2023-06-14T01:45:02;4.88;;;3.70;;
37905;SDS011;23739;51.448;6.674;2023-06-14T01:47:29;8.35;;;3.72;;
37905;SDS011;23739;51.448;6.674;2023-06-14T01:49:55;9.07;;;4.55;;
37905;SDS011;23739;51.448;6.674;2023-06-14T01:52:21;7.18;;;4.85;;
37905;SDS011;23739;51.448;6.674;2023-06-14T01:54:49;6.25;;;4.65;;
37905;SDS011;23739;51.448;6.674;2023-06-14T01:57:15;7.40;;;4.53;;
37905;SDS011;23739;51.448;6.674;2023-06-14T01:59:42;6.95;;;4.50;;
37905;SDS011;23739;51.448;6.674;2023-06-14T02:02:13;9.48;;;4.32;;
37905;SDS011;23739;51.448;6.674;2023-06-14T02:04:39;7.45;;;3.95;;
37905;SDS011;23739;51.448;6.674;2023-06-14T02:07:05;5.85;;;3.88;;
37905;SDS011;23739;51.448;6.674;2023-06-14T02:09:31;11.00;;;4.25;;
37905;SDS011;23739;51.448;6.674;2023-06-14T02:11:57;7.72;;;4.57;;
37905;SDS011;23739;51.448;6.674;2023-06-14T02:14:24;9.77;;;5.30;;
37905;SDS011;23739;51.448;6.674;2023-06-14T02:16:51;8.25;;;4.43;;
37905;SDS011;23739;51.448;6.674;2023-06-14T02:19:18;11.07;;;5.28;;
37905;SDS011;23739;51.448;6.674;2023-06-14T02:21:45;7.13;;;4.00;;
37905;SDS011;23739;51.448;6.674;2023-06-14T02:24:11;6.45;;;4.55;;
37905;SDS011;23739;51.448;6.674;2023-06-14T02:26:37;6.30;;;4.07;;
37905;SDS011;23739;51.448;6.674;2023-06-14T02:29:04;6.55;;;4.10;;
37905;SDS011;23739;51.448;6.674;2023-06-14T02:31:40;9.32;;;4.20;;
37905;SDS011;23739;51.448;6.674;2023-06-14T02:34:06;7.95;;;4.30;;
37905;SDS011;23739;51.448;6.674;2023-06-14T02:36:35;12.63;;;4.30;;
37905;SDS011;23739;51.448;6.674;2023-06-14T02:39:07;6.50;;;3.60;;
37905;SDS011;23739;51.448;6.674;2023-06-14T02:41:36;5.03;;;3.75;;
37905;SDS011;23739;51.448;6.674;2023-06-14T02:44:02;6.25;;;4.18;;
37905;SDS011;23739;51.448;6.674;2023-06-14T02:46:28;5.72;;;4.07;;
37905;SDS011;23739;51.448;6.674;2023-06-14T02:48:54;11.10;;;4.03;;
37905;SDS011;23739;51.448;6.674;2023-06-14T02:51:20;11.07;;;4.55;;
37905;SDS011;23739;51.448;6.674;2023-06-14T02:53:46;12.05;;;5.00;;
37905;SDS011;23739;51.448;6.674;2023-06-14T02:56:13;8.80;;;4.28;;
37905;SDS011;23739;51.448;6.674;2023-06-14T02:58:39;7.53;;;4.18;;
37905;SDS011;23739;51.448;6.674;2023-06-14T03:01:06;6.55;;;4.30;;
37905;SDS011;23739;51.448;6.674;2023-06-14T03:03:32;7.15;;;4.07;;
37905;SDS011;23739;51.448;6.674;2023-06-14T03:05:59;6.68;;;4.07;;
37905;SDS011;23739;51.448;6.674;2023-06-14T03:08:30;8.30;;;5.00;;
37905;SDS011;23739;51.448;6.674;2023-06-14T03:10:58;7.57;;;4.18;;
37905;SDS011;23739;51.448;6.674;2023-06-14T03:13:24;6.15;;;4.20;;
37905;SDS011;23739;51.448;6.674;2023-06-14T03:15:51;5.45;;;4.13;;
37905;SDS011;23739;51.448;6.674;2023-06-14T03:18:17;6.90;;;3.83;;
37905;SDS011;23739;51.448;6.674;2023-06-14T03:20:44;8.48;;;4.03;;
37905;SDS011;23739;51.448;6.674;2023-06-14T03:23:13;5.60;;;3.70;;
37905;SDS011;23739;51.448;6.674;2023-06-14T03:25:39;8.70;;;4.25;;
37905;SDS011;23739;51.448;6.674;2023-06-14T03:28:07;6.18;;;4.22;;
37905;SDS011;23739;51.448;6.674;2023-06-14T03:30:33;5.53;;;3.55;;
37905;SDS011;23739;51.448;6.674;2023-06-14T03:32:59;10.57;;;4.18;;
37905;SDS011;23739;51.448;6.674;2023-06-14T03:35:29;7.97;;;4.25;;
37905;SDS011;23739;51.448;6.674;2023-06-14T03:37:56;9.93;;;4.53;;
37905;SDS011;23739;51.448;6.674;2023-06-14T03:40:22;8.85;;;4.45;;
37905;SDS011;23739;51.448;6.674;2023-06-14T03:42:52;10.48;;;3.80;;
37905;SDS011;23739;51.448;6.674;2023-06-14T03:45:18;10.20;;;4.47;;
37905;SDS011;23739;51.448;6.674;2023-06-14T03:47:44;7.30;;;3.60;;
37905;SDS011;23739;51.448;6.674;2023-06-14T03:50:10;5.18;;;3.40;;
37905;SDS011;23739;51.448;6.674;2023-06-14T03:52:37;6.35;;;3.55;;
37905;SDS011;23739;51.448;6.674;2023-06-14T03:55:03;7.30;;;3.53;;
37905;SDS011;23739;51.448;6.674;2023-06-14T03:57:30;5.57;;;4.05;;
37905;SDS011;23739;51.448;6.674;2023-06-14T03:59:56;10.13;;;3.58;;
37905;SDS011;23739;51.448;6.674;2023-06-14T04:02:22;5.90;;;3.03;;
37905;SDS011;23739;51.448;6.674;2023-06-14T04:04:49;8.57;;;3.75;;
37905;SDS011;23739;51.448;6.674;2023-06-14T04:07:16;12.98;;;4.03;;
37905;SDS011;23739;51.448;6.674;2023-06-14T04:09:44;10.82;;;4.57;;
37905;SDS011;23739;51.448;6.674;2023-06-14T04:12:10;9.10;;;4.20;;
37905;SDS011;23739;51.448;6.674;2023-06-14T04:14:37;13.85;;;4.57;;
37905;SDS011;23739;51.448;6.674;2023-06-14T04:17:03;7.88;;;3.75;;
37905;SDS011;23739;51.448;6.674;2023-06-14T04:19:29;6.45;;;4.07;;
37905;SDS011;23739;51.448;6.674;2023-06-14T04:21:55;5.85;;;3.80;;
37905;SDS011;23739;51.448;6.674;2023-06-14T04:24:22;9.15;;;3.75;;
37905;SDS011;23739;51.448;6.674;2023-06-14T04:26:53;4.00;;;2.80;;
37905;SDS011;23739;51.448;6.674;2023-06-14T04:29:19;8.48;;;4.03;;
37905;SDS011;23739;51.448;6.674;2023-06-14T04:31:46;7.95;;;3.65;;
37905;SDS011;23739;51.448;6.674;2023-06-14T04:34:12;6.68;;;3.35;;
37905;SDS011;23739;51.448;6.674;2023-06-14T04:36:42;5.85;;;3.90;;
37905;SDS011;23739;51.448;6.674;2023-06-14T04:39:17;8.50;;;3.00;;
37905;SDS011;23739;51.448;6.674;2023-06-14T04:41:43;7.20;;;3.05;;
37905;SDS011;23739;51.448;6.674;2023-06-14T04:44:10;7.75;;;3.65;;
37905;SDS011;23739;51.448;6.674;2023-06-14T04:46:37;15.35;;;3.83;;
37905;SDS011;23739;51.448;6.674;2023-06-14T04:49:11;9.80;;;3.63;;
37905;SDS011;23739;51.448;6.674;2023-06-14T04:51:39;6.05;;;3.38;;
37905;SDS011;23739;51.448;6.674;2023-06-14T04:54:06;5.00;;;3.53;;
37905;SDS011;23739;51.448;6.674;2023-06-14T04:56:35;10.73;;;3.20;;
37905;SDS011;23739;51.448;6.674;2023-06-14T04:59:04;9.93;;;3.17;;
37905;SDS011;23739;51.448;6.674;2023-06-14T05:01:30;4.80;;;3.42;;
37905;SDS011;23739;51.448;6.674;2023-06-14T05:03:57;5.47;;;3.35;;
37905;SDS011;23739;51.448;6.674;2023-06-14T05:06:23;6.72;;;3.65;;
37905;SDS011;23739;51.448;6.674;2023-06-14T05:08:49;5.10;;;3.72;;
37905;SDS011;23739;51.448;6.674;2023-06-14T05:11:17;7.45;;;3.22;;
37905;SDS011;23739;51.448;6.674;2023-06-14T05:13:43;7.43;;;3.53;;
37905;SDS011;23739;51.448;6.674;2023-06-14T05:16:10;6.63;;;3.90;;
37905;SDS011;23739;51.448;6.674;2023-06-14T05:18:36;7.13;;;3.00;;
37905;SDS011;23739;51.448;6.674;2023-06-14T05:21:03;8.40;;;4.00;;
37905;SDS011;23739;51.448;6.674;2023-06-14T05:23:30;8.13;;;4.13;;
37905;SDS011;23739;51.448;6.674;2023-06-14T05:25:56;8.55;;;3.40;;
37905;SDS011;23739;51.448;6.674;2023-06-14T05:28:22;6.10;;;3.55;;
37905;SDS011;23739;51.448;6.674;2023-06-14T05:30:49;9.45;;;2.95;;
37905;SDS011;23739;51.448;6.674;2023-06-14T05:33:15;6.70;;;3.08;;
37905;SDS011;23739;51.448;6.674;2023-06-14T05:35:41;5.13;;;3.10;;
37905;SDS011;23739;51.448;6.674;2023-06-14T05:38:07;7.60;;;3.35;;
37905;SDS011;23739;51.448;6.674;2023-06-14T05:40:34;7.18;;;3.33;;
37905;SDS011;23739;51.448;6.674;2023-06-14T05:43:00;6.35;;;3.03;;
37905;SDS011;23739;51.448;6.674;2023-06-14T05:45:26;6.03;;;2.97;;
37905;SDS011;23739;51.448;6.674;2023-06-14T05:47:52;5.43;;;3.45;;
37905;SDS011;23739;51.448;6.674;2023-06-14T05:50:19;7.85;;;3.17;;
37905;SDS011;23739;51.448;6.674;2023-06-14T05:52:46;6.10;;;3.13;;
37905;SDS011;23739;51.448;6.674;2023-06-14T05:55:12;5.50;;;3.00;;
37905;SDS011;23739;51.448;6.674;2023-06-14T05:57:38;9.57;;;3.05;;
37905;SDS011;23739;51.448;6.674;2023-06-14T06:00:05;9.15;;;3.00;;
37905;SDS011;23739;51.448;6.674;2023-06-14T06:02:42;9.27;;;3.95;;
37905;SDS011;23739;51.448;6.674;2023-06-14T06:05:09;7.00;;;3.42;;
37905;SDS011;23739;51.448;6.674;2023-06-14T06:07:36;11.20;;;4.03;;
37905;SDS011;23739;51.448;6.674;2023-06-14T06:10:02;6.97;;;3.25;;
37905;SDS011;23739;51.448;6.674;2023-06-14T06:12:29;6.07;;;3.28;;
37905;SDS011;23739;51.448;6.674;2023-06-14T06:14:55;7.88;;;3.42;;
37905;SDS011;23739;51.448;6.674;2023-06-14T06:17:21;4.93;;;2.97;;
37905;SDS011;23739;51.448;6.674;2023-06-14T06:19:47;7.05;;;3.25;;
37905;SDS011;23739;51.448;6.674;2023-06-14T06:22:13;5.25;;;2.67;;
37905;SDS011;23739;51.448;6.674;2023-06-14T06:24:39;4.93;;;2.78;;
37905;SDS011;23739;51.448;6.674;2023-06-14T06:27:05;5.07;;;3.47;;
37905;SDS011;23739;51.448;6.674;2023-06-14T06:29:33;9.55;;;2.88;;
37905;SDS011;23739;51.448;6.674;2023-06-14T06:32:00;5.70;;;2.97;;
37905;SDS011;23739;51.448;6.674;2023-06-14T06:34:26;6.18;;;3.00;;
37905;SDS011;23739;51.448;6.674;2023-06-14T06:36:52;7.35;;;3.92;;
37905;SDS011;23739;51.448;6.674;2023-06-14T06:39:18;12.95;;;3.38;;
37905;SDS011;23739;51.448;6.674;2023-06-14T06:41:45;7.50;;;2.60;;
37905;SDS011;23739;51.448;6.674;2023-06-14T06:44:11;8.55;;;2.50;;
37905;SDS011;23739;51.448;6.674;2023-06-14T06:46:38;4.88;;;2.63;;
37905;SDS011;23739;51.448;6.674;2023-06-14T06:49:08;10.23;;;2.55;;
37905;SDS011;23739;51.448;6.674;2023-06-14T06:51:40;5.95;;;2.58;;
37905;SDS011;23739;51.448;6.674;2023-06-14T06:54:07;4.55;;;2.10;;
37905;SDS011;23739;51.448;6.674;2023-06-14T06:56:33;5.63;;;2.65;;
37905;SDS011;23739;51.448;6.674;2023-06-14T06:59:00;4.15;;;2.42;;
37905;SDS011;23739;51.448;6.674;2023-06-14T07:01:26;2.30;;;2.10;;
37905;SDS011;23739;51.448;6.674;2023-06-14T07:03:54;3.22;;;1.75;;
37905;SDS011;23739;51.448;6.674;2023-06-14T07:06:20;7.50;;;2.05;;
37905;SDS011;23739;51.448;6.674;2023-06-14T07:08:47;2.47;;;1.85;;
37905;SDS011;23739;51.448;6.674;2023-06-14T07:11:15;5.78;;;1.95;;
37905;SDS011;23739;51.448;6.674;2023-06-14T07:13:41;2.88;;;1.63;;
37905;SDS011;23739;51.448;6.674;2023-06-14T07:16:07;3.85;;;1.92;;
37905;SDS011;23739;51.448;6.674;2023-06-14T07:18:34;2.22;;;1.55;;
37905;SDS011;23739;51.448;6.674;2023-06-14T07:21:02;4.18;;;1.92;;
37905;SDS011;23739;51.448;6.674;2023-06-14T07:23:28;5.40;;;1.92;;
37905;SDS011;23739;51.448;6.674;2023-06-14T07:25:54;2.63;;;1.35;;
37905;SDS011;23739;51.448;6.674;2023-06-14T07:28:21;2.15;;;1.58;;
37905;SDS011;23739;51.448;6.674;2023-06-14T07:30:47;5.00;;;1.40;;
37905;SDS011;23739;51.448;6.674;2023-06-14T07:33:13;1.63;;;1.52;;
37905;SDS011;23739;51.448;6.674;2023-06-14T07:35:40;6.68;;;1.70;;
37905;SDS011;23739;51.448;6.674;2023-06-14T07:38:06;6.63;;;1.70;;
37905;SDS011;23739;51.448;6.674;2023-06-14T07:40:32;5.50;;;2.17;;
37905;SDS011;23739;51.448;6.674;2023-06-14T07:42:58;5.10;;;1.60;;
37905;SDS011;23739;51.448;6.674;2023-06-14T07:45:24;3.10;;;1.10;;
37905;SDS011;23739;51.448;6.674;2023-06-14T07:47:50;4.18;;;2.40;;
37905;SDS011;23739;51.448;6.674;2023-06-14T07:50:17;4.53;;;1.58;;
37905;SDS011;23739;51.448;6.674;2023-06-14T07:52:43;5.07;;;1.70;;
37905;SDS011;23739;51.448;6.674;2023-06-14T07:55:10;2.67;;;1.35;;
37905;SDS011;23739;51.448;6.674;2023-06-14T07:57:36;4.97;;;1.60;;
37905;SDS011;23739;51.448;6.674;2023-06-14T08:00:02;8.27;;;1.67;;
37905;SDS011;23739;51.448;6.674;2023-06-14T08:02:31;4.35;;;1.63;;
37905;SDS011;23739;51.448;6.674;2023-06-14T08:04:57;2.97;;;1.60;;
37905;SDS011;23739;51.448;6.674;2023-06-14T08:07:24;4.90;;;1.55;;
37905;SDS011;23739;51.448;6.674;2023-06-14T08:09:50;6.93;;;2.08;;
37905;SDS011;23739;51.448;6.674;2023-06-14T08:12:16;3.60;;;1.50;;
37905;SDS011;23739;51.448;6.674;2023-06-14T08:14:42;5.50;;;1.60;;
37905;SDS011;23739;51.448;6.674;2023-06-14T08:17:09;2.88;;;2.03;;
37905;SDS011;23739;51.448;6.674;2023-06-14T08:19:35;3.33;;;1.98;;
37905;SDS011;23739;51.448;6.674;2023-06-14T08:22:01;2.53;;;1.63;;
37905;SDS011;23739;51.448;6.674;2023-06-14T08:24:28;1.67;;;1.50;;
37905;SDS011;23739;51.448;6.674;2023-06-14T08:26:54;8.32;;;1.98;;
37905;SDS011;23739;51.448;6.674;2023-06-14T08:29:26;4.38;;;1.55;;
37905;SDS011;23739;51.448;6.674;2023-06-14T08:31:54;6.25;;;1.92;;
37905;SDS011;23739;51.448;6.674;2023-06-14T08:34:20;3.10;;;1.45;;
37905;SDS011;23739;51.448;6.674;2023-06-14T08:36:50;3.20;;;1.30;;
37905;SDS011;23739;51.448;6.674;2023-06-14T08:39:16;2.00;;;1.60;;
37905;SDS011;23739;51.448;6.674;2023-06-14T08:41:46;2.65;;;1.65;;
37905;SDS011;23739;51.448;6.674;2023-06-14T08:44:18;6.05;;;1.50;;
37905;SDS011;23739;51.448;6.674;2023-06-14T08:46:45;2.45;;;1.90;;
37905;SDS011;23739;51.448;6.674;2023-06-14T08:49:13;4.15;;;1.60;;
37905;SDS011;23739;51.448;6.674;2023-06-14T08:51:41;5.32;;;1.50;;
37905;SDS011;23739;51.448;6.674;2023-06-14T08:54:10;4.30;;;1.50;;
37905;SDS011;23739;51.448;6.674;2023-06-14T08:56:37;3.63;;;1.38;;
37905;SDS011;23739;51.448;6.674;2023-06-14T08:59:04;4.18;;;2.55;;
37905;SDS011;23739;51.448;6.674;2023-06-14T09:01:33;3.67;;;1.63;;
37905;SDS011;23739;51.448;6.674;2023-06-14T09:03:59;2.50;;;1.40;;
37905;SDS011;23739;51.448;6.674;2023-06-14T09:06:27;2.08;;;1.55;;
37905;SDS011;23739;51.448;6.674;2023-06-14T09:08:54;6.25;;;1.88;;
37905;SDS011;23739;51.448;6.674;2023-06-14T09:11:24;2.33;;;1.98;;
37905;SDS011;23739;51.448;6.674;2023-06-14T09:13:51;11.45;;;1.92;;
37905;SDS011;23739;51.448;6.674;2023-06-14T09:16:17;6.25;;;1.50;;
37905;SDS011;23739;51.448;6.674;2023-06-14T09:18:45;4.75;;;1.75;;
37905;SDS011;23739;51.448;6.674;2023-06-14T09:21:15;7.90;;;2.00;;
37905;SDS011;23739;51.448;6.674;2023-06-14T09:23:42;4.95;;;1.55;;
37905;SDS011;23739;51.448;6.674;2023-06-14T09:26:15;3.83;;;1.60;;
37905;SDS011;23739;51.448;6.674;2023-06-14T09:28:41;3.63;;;1.88;;
37905;SDS011;23739;51.448;6.674;2023-06-14T09:31:09;3.25;;;1.42;;
37905;SDS011;23739;51.448;6.674;2023-06-14T09:33:36;5.78;;;1.83;;
37905;SDS011;23739;51.448;6.674;2023-06-14T09:36:03;4.03;;;1.55;;
37905;SDS011;23739;51.448;6.674;2023-06-14T09:38:30;4.95;;;2.40;;
37905;SDS011;23739;51.448;6.674;2023-06-14T09:40:57;2.15;;;1.70;;
37905;SDS011;23739;51.448;6.674;2023-06-14T09:43:23;2.58;;;1.45;;
37905;SDS011;23739;51.448;6.674;2023-06-14T09:45:53;4.22;;;1.10;;
37905;SDS011;23739;51.448;6.674;2023-06-14T09:48:20;5.15;;;1.85;;
37905;SDS011;23739;51.448;6.674;2023-06-14T09:50:46;4.72;;;1.65;;
37905;SDS011;23739;51.448;6.674;2023-06-14T09:53:13;4.63;;;1.45;;
37905;SDS011;23739;51.448;6.674;2023-06-14T09:55:40;6.82;;;1.80;;
37905;SDS011;23739;51.448;6.674;2023-06-14T09:58:07;1.38;;;1.25;;
37905;SDS011;23739;51.448;6.674;2023-06-14T10:00:34;4.47;;;1.77;;
37905;SDS011;23739;51.448;6.674;2023-06-14T10:03:03;4.03;;;1.38;;
37905;SDS011;23739;51.448;6.674;2023-06-14T10:05:32;3.40;;;1.17;;
37905;SDS011;23739;51.448;6.674;2023-06-14T10:08:03;2.83;;;1.30;;
37905;SDS011;23739;51.448;6.674;2023-06-14T10:10:30;5.13;;;1.50;;
37905;SDS011;23739;51.448;6.674;2023-06-14T10:12:56;4.00;;;1.10;;
37905;SDS011;23739;51.448;6.674;2023-06-14T10:15:32;1.10;;;1.00;;
37905;SDS011;23739;51.448;6.674;2023-06-14T10:18:09;3.45;;;1.05;;
37905;SDS011;23739;51.448;6.674;2023-06-14T10:20:45;2.60;;;1.00;;
37905;SDS011;23739;51.448;6.674;2023-06-14T10:23:16;3.85;;;0.90;;
37905;SDS011;23739;51.448;6.674;2023-06-14T10:25:43;2.60;;;1.50;;
37905;SDS011;23739;51.448;6.674;2023-06-14T10:28:19;1.73;;;0.80;;
37905;SDS011;23739;51.448;6.674;2023-06-14T10:31:03;0.90;;;0.85;;
37905;SDS011;23739;51.448;6.674;2023-06-14T10:33:30;1.35;;;0.70;;
37905;SDS011;23739;51.448;6.674;2023-06-14T10:36:10;6.30;;;1.15;;
37905;SDS011;23739;51.448;6.674;2023-06-14T10:38:36;3.13;;;0.85;;
37905;SDS011;23739;51.448;6.674;2023-06-14T10:41:04;2.95;;;1.05;;
37905;SDS011;23739;51.448;6.674;2023-06-14T10:43:31;6.28;;;1.17;;
37905;SDS011;23739;51.448;6.674;2023-06-14T10:48:42;1.05;;;0.82;;
37905;SDS011;23739;51.448;6.674;2023-06-14T10:51:18;4.28;;;1.00;;
37905;SDS011;23739;51.448;6.674;2023-06-14T10:53:49;2.95;;;1.30;;
37905;SDS011;23739;51.448;6.674;2023-06-14T10:58:51;2.88;;;1.00;;
37905;SDS011;23739;51.448;6.674;2023-06-14T11:01:22;1.25;;;0.98;;
37905;SDS011;23739;51.448;6.674;2023-06-14T11:03:52;1.85;;;1.02;;
37905;SDS011;23739;51.448;6.674;2023-06-14T11:06:20;2.47;;;0.70;;
37905;SDS011;23739;51.448;6.674;2023-06-14T11:08:56;2.33;;;0.90;;
37905;SDS011;23739;51.448;6.674;2023-06-14T11:11:33;2.45;;;1.08;;
37905;SDS011;23739;51.448;6.674;2023-06-14T11:14:01;3.35;;;0.80;;
37905;SDS011;23739;51.448;6.674;2023-06-14T11:16:27;2.67;;;0.90;;
37905;SDS011;23739;51.448;6.674;2023-06-14T11:18:54;1.52;;;0.80;;
37905;SDS011;23739;51.448;6.674;2023-06-14T11:21:20;2.70;;;0.90;;
37905;SDS011;23739;51.448;6.674;2023-06-14T11:23:53;3.95;;;1.05;;
37905;SDS011;23739;51.448;6.674;2023-06-14T11:26:27;1.73;;;0.70;;
37905;SDS011;23739;51.448;6.674;2023-06-14T11:29:00;3.70;;;1.08;;
37905;SDS011;23739;51.448;6.674;2023-06-14T11:31:27;3.70;;;0.80;;
37905;SDS011;23739;51.448;6.674;2023-06-14T11:33:56;1.73;;;0.80;;
37905;SDS011;23739;51.448;6.674;2023-06-14T11:36:23;2.45;;;0.90;;
37905;SDS011;23739;51.448;6.674;2023-06-14T11:38:49;5.22;;;1.08;;
37905;SDS011;23739;51.448;6.674;2023-06-14T11:41:15;1.38;;;1.20;;
37905;SDS011;23739;51.448;6.674;2023-06-14T11:43:42;3.00;;;1.20;;
37905;SDS011;23739;51.448;6.674;2023-06-14T11:46:14;3.42;;;0.90;;
37905;SDS011;23739;51.448;6.674;2023-06-14T11:48:47;3.75;;;1.15;;
37905;SDS011;23739;51.448;6.674;2023-06-14T11:51:13;3.05;;;1.00;;
37905;SDS011;23739;51.448;6.674;2023-06-14T11:53:39;3.30;;;1.23;;
37905;SDS011;23739;51.448;6.674;2023-06-14T11:56:06;4.72;;;0.90;;
37905;SDS011;23739;51.448;6.674;2023-06-14T11:58:32;1.30;;;1.20;;
37905;SDS011;23739;51.448;6.674;2023-06-14T12:00:58;1.65;;;0.80;;
37905;SDS011;23739;51.448;6.674;2023-06-14T12:03:25;2.65;;;1.00;;
37905;SDS011;23739;51.448;6.674;2023-06-14T12:06:05;2.47;;;1.05;;
37905;SDS011;23739;51.448;6.674;2023-06-14T12:08:36;1.48;;;0.90;;
37905;SDS011;23739;51.448;6.674;2023-06-14T12:11:06;1.63;;;1.20;;
37905;SDS011;23739;51.448;6.674;2023-06-14T12:13:33;2.20;;;0.85;;
37905;SDS011;23739;51.448;6.674;2023-06-14T12:16:03;6.53;;;1.40;;
37905;SDS011;23739;51.448;6.674;2023-06-14T12:18:33;3.80;;;1.05;;
37905;SDS011;23739;51.448;6.674;2023-06-14T12:21:00;3.25;;;1.10;;
37905;SDS011;23739;51.448;6.674;2023-06-14T12:26:05;3.15;;;0.88;;
37905;SDS011;23739;51.448;6.674;2023-06-14T12:28:31;4.78;;;0.90;;
37905;SDS011;23739;51.448;6.674;2023-06-14T12:30:57;4.65;;;1.00;;
37905;SDS011;23739;51.448;6.674;2023-06-14T12:33:24;8.57;;;1.63;;
37905;SDS011;23739;51.448;6.674;2023-06-14T12:35:51;1.90;;;1.35;;
37905;SDS011;23739;51.448;6.674;2023-06-14T12:38:17;1.98;;;1.02;;
37905;SDS011;23739;51.448;6.674;2023-06-14T12:40:43;1.40;;;0.90;;
37905;SDS011;23739;51.448;6.674;2023-06-14T12:43:09;6.53;;;1.23;;
37905;SDS011;23739;51.448;6.674;2023-06-14T12:45:36;5.10;;;1.20;;
37905;SDS011;23739;51.448;6.674;2023-06-14T12:48:02;4.45;;;1.05;;
37905;SDS011;23739;51.448;6.674;2023-06-14T12:50:28;2.58;;;1.05;;
37905;SDS011;23739;51.448;6.674;2023-06-14T12:52:54;1.13;;;1.00;;
37905;SDS011;23739;51.448;6.674;2023-06-14T12:55:20;2.30;;;1.05;;
37905;SDS011;23739;51.448;6.674;2023-06-14T12:57:46;1.80;;;1.17;;
37905;SDS011;23739;51.448;6.674;2023-06-14T13:00:14;1.80;;;1.15;;
37905;SDS011;23739;51.448;6.674;2023-06-14T13:02:42;3.10;;;1.20;;
37905;SDS011;23739;51.448;6.674;2023-06-14T13:05:08;1.55;;;1.35;;
37905;SDS011;23739;51.448;6.674;2023-06-14T13:07:34;1.45;;;0.95;;
37905;SDS011;23739;51.448;6.674;2023-06-14T13:10:00;2.65;;;1.20;;
37905;SDS011;23739;51.448;6.674;2023-06-14T13:12:27;2.65;;;1.55;;
37905;SDS011;23739;51.448;6.674;2023-06-14T13:14:53;3.13;;;1.00;;
37905;SDS011;23739;51.448;6.674;2023-06-14T13:17:19;4.32;;;1.50;;
37905;SDS011;23739;51.448;6.674;2023-06-14T13:19:45;7.38;;;1.48;;
37905;SDS011;23739;51.448;6.674;2023-06-14T13:22:12;1.42;;;1.20;;
37905;SDS011;23739;51.448;6.674;2023-06-14T13:24:38;4.97;;;1.33;;
37905;SDS011;23739;51.448;6.674;2023-06-14T13:27:04;5.25;;;1.70;;
37905;SDS011;23739;51.448;6.674;2023-06-14T13:29:30;2.22;;;1.33;;
37905;SDS011;23739;51.448;6.674;2023-06-14T13:31:58;2.70;;;2.35;;
37905;SDS011;23739;51.448;6.674;2023-06-14T13:34:25;3.88;;;1.30;;
37905;SDS011;23739;51.448;6.674;2023-06-14T13:36:51;4.72;;;1.40;;
37905;SDS011;23739;51.448;6.674;2023-06-14T13:39:18;4.22;;;1.27;;
37905;SDS011;23739;51.448;6.674;2023-06-14T13:41:44;4.32;;;1.70;;
37905;SDS011;23739;51.448;6.674;2023-06-14T13:44:10;4.38;;;1.42;;
37905;SDS011;23739;51.448;6.674;2023-06-14T13:46:39;2.72;;;1.20;;
37905;SDS011;23739;51.448;6.674;2023-06-14T13:49:05;2.28;;;1.55;;
37905;SDS011;23739;51.448;6.674;2023-06-14T13:51:31;2.17;;;1.27;;
37905;SDS011;23739;51.448;6.674;2023-06-14T13:53:58;4.50;;;1.92;;
37905;SDS011;23739;51.448;6.674;2023-06-14T13:56:24;4.10;;;1.55;;
37905;SDS011;23739;51.448;6.674;2023-06-14T13:58:51;3.83;;;1.95;;
37905;SDS011;23739;51.448;6.674;2023-06-14T14:01:17;3.67;;;1.38;;
37905;SDS011;23739;51.448;6.674;2023-06-14T14:03:44;3.42;;;1.90;;
37905;SDS011;23739;51.448;6.674;2023-06-14T14:06:11;1.67;;;1.55;;
37905;SDS011;23739;51.448;6.674;2023-06-14T14:08:37;5.72;;;1.73;;
37905;SDS011;23739;51.448;6.674;2023-06-14T14:11:07;4.93;;;1.50;;
37905;SDS011;23739;51.448;6.674;2023-06-14T14:13:34;3.42;;;1.27;;
37905;SDS011;23739;51.448;6.674;2023-06-14T14:16:04;1.73;;;1.63;;
37905;SDS011;23739;51.448;6.674;2023-06-14T14:18:31;1.88;;;1.38;;
37905;SDS011;23739;51.448;6.674;2023-06-14T14:20:58;5.60;;;1.20;;
37905;SDS011;23739;51.448;6.674;2023-06-14T14:23:25;5.00;;;2.10;;
37905;SDS011;23739;51.448;6.674;2023-06-14T14:25:51;1.92;;;1.30;;
37905;SDS011;23739;51.448;6.674;2023-06-14T14:28:18;1.98;;;1.50;;
37905;SDS011;23739;51.448;6.674;2023-06-14T14:30:45;2.67;;;1.55;;
37905;SDS011;23739;51.448;6.674;2023-06-14T14:33:15;4.22;;;1.30;;
37905;SDS011;23739;51.448;6.674;2023-06-14T14:35:43;1.30;;;1.20;;
37905;SDS011;23739;51.448;6.674;2023-06-14T14:38:11;1.60;;;1.50;;
37905;SDS011;23739;51.448;6.674;2023-06-14T14:40:38;3.30;;;1.90;;
37905;SDS011;23739;51.448;6.674;2023-06-14T14:43:05;3.17;;;1.60;;
37905;SDS011;23739;51.448;6.674;2023-06-14T14:45:31;2.92;;;1.55;;
37905;SDS011;23739;51.448;6.674;2023-06-14T14:47:58;3.75;;;1.80;;
37905;SDS011;23739;51.448;6.674;2023-06-14T14:50:25;3.60;;;1.27;;
37905;SDS011;23739;51.448;6.674;2023-06-14T14:52:51;2.55;;;1.50;;
37905;SDS011;23739;51.448;6.674;2023-06-14T14:55:18;2.30;;;1.55;;
37905;SDS011;23739;51.448;6.674;2023-06-14T14:57:45;4.28;;;1.60;;
37905;SDS011;23739;51.448;6.674;2023-06-14T15:00:12;2.90;;;1.35;;
37905;SDS011;23739;51.448;6.674;2023-06-14T15:02:38;4.07;;;1.70;;